sensor_id;sensor_type;location;lat;lon;timestamp;pressure;altitude;pressure_sealevel;temperature;humidity
61436;BME280;47304;47.456;19.160;2023-02-22T00:01:23;100232.39;;;8.65;62.41
61436;BME280;47304;47.456;19.160;2023-02-22T00:03:50;100232.89;;;8.62;62.44
61436;BME280;47304;47.456;19.160;2023-02-22T00:06:19;100238.65;;;8.61;62.61
61436;BME280;47304;47.456;19.160;2023-02-22T00:08:47;100243.72;;;8.60;62.84
61436;BME280;47304;47.456;19.160;2023-02-22T00:11:14;100245.80;;;8.58;62.66
61436;BME280;47304;47.456;19.160;2023-02-22T00:13:41;100244.55;;;8.55;62.82
61436;BME280;47304;47.456;19.160;2023-02-22T00:16:08;100244.02;;;8.53;62.91
61436;BME280;47304;47.456;19.160;2023-02-22T00:18:35;100244.35;;;8.50;62.94
61436;BME280;47304;47.456;19.160;2023-02-22T00:21:01;100244.48;;;8.47;63.13
61436;BME280;47304;47.456;19.160;2023-02-22T00:23:29;100241.66;;;8.44;63.20
61436;BME280;47304;47.456;19.160;2023-02-22T00:25:57;100246.88;;;8.39;63.35
61436;BME280;47304;47.456;19.160;2023-02-22T00:28:25;100238.64;;;8.35;63.39
61436;BME280;47304;47.456;19.160;2023-02-22T00:30:51;100240.02;;;8.31;63.53
61436;BME280;47304;47.456;19.160;2023-02-22T00:33:18;100240.83;;;8.25;63.81
61436;BME280;47304;47.456;19.160;2023-02-22T00:35:45;100246.38;;;8.18;63.91
61436;BME280;47304;47.456;19.160;2023-02-22T00:38:13;100241.98;;;8.13;64.21
61436;BME280;47304;47.456;19.160;2023-02-22T00:40:40;100244.04;;;8.08;64.02
61436;BME280;47304;47.456;19.160;2023-02-22T00:43:07;100250.12;;;8.05;64.27
61436;BME280;47304;47.456;19.160;2023-02-22T00:45:35;100245.55;;;8.02;64.21
61436;BME280;47304;47.456;19.160;2023-02-22T00:48:04;100249.19;;;7.98;64.15
61436;BME280;47304;47.456;19.160;2023-02-22T00:50:31;100249.51;;;7.95;64.13
61436;BME280;47304;47.456;19.160;2023-02-22T00:53:00;100255.93;;;7.90;64.16
61436;BME280;47304;47.456;19.160;2023-02-22T00:55:29;100249.61;;;7.87;64.17
61436;BME280;47304;47.456;19.160;2023-02-22T00:57:57;100246.77;;;7.81;64.46
61436;BME280;47304;47.456;19.160;2023-02-22T01:00:32;100247.26;;;7.76;64.63
61436;BME280;47304;47.456;19.160;2023-02-22T01:02:59;100248.21;;;7.67;64.49
61436;BME280;47304;47.456;19.160;2023-02-22T01:05:28;100244.84;;;7.61;64.82
61436;BME280;47304;47.456;19.160;2023-02-22T01:07:56;100246.37;;;7.56;64.97
61436;BME280;47304;47.456;19.160;2023-02-22T01:10:24;100243.55;;;7.53;65.00
61436;BME280;47304;47.456;19.160;2023-02-22T01:12:52;100246.83;;;7.49;65.04
61436;BME280;47304;47.456;19.160;2023-02-22T01:15:21;100240.33;;;7.45;65.13
61436;BME280;47304;47.456;19.160;2023-02-22T01:17:49;100239.24;;;7.40;65.28
61436;BME280;47304;47.456;19.160;2023-02-22T01:20:17;100238.69;;;7.37;65.52
61436;BME280;47304;47.456;19.160;2023-02-22T01:22:46;100235.16;;;7.34;65.87
61436;BME280;47304;47.456;19.160;2023-02-22T01:25:19;100237.94;;;7.33;65.72
61436;BME280;47304;47.456;19.160;2023-02-22T01:27:45;100239.33;;;7.32;65.90
61436;BME280;47304;47.456;19.160;2023-02-22T01:30:13;100236.70;;;7.31;65.64
61436;BME280;47304;47.456;19.160;2023-02-22T01:32:41;100239.98;;;7.29;65.64
61436;BME280;47304;47.456;19.160;2023-02-22T01:35:12;100235.45;;;7.27;65.81
61436;BME280;47304;47.456;19.160;2023-02-22T01:37:39;100236.31;;;7.26;65.70
61436;BME280;47304;47.456;19.160;2023-02-22T01:40:09;100234.54;;;7.24;65.59
61436;BME280;47304;47.456;19.160;2023-02-22T01:42:39;100233.98;;;7.22;65.67
61436;BME280;47304;47.456;19.160;2023-02-22T01:48:10;100229.77;;;7.19;66.00
61436;BME280;47304;47.456;19.160;2023-02-22T01:50:41;100227.48;;;7.17;65.83
61436;BME280;47304;47.456;19.160;2023-02-22T01:53:10;100223.60;;;7.12;65.78
61436;BME280;47304;47.456;19.160;2023-02-22T01:55:38;100229.85;;;7.09;65.84
61436;BME280;47304;47.456;19.160;2023-02-22T01:58:06;100229.61;;;7.05;65.78
61436;BME280;47304;47.456;19.160;2023-02-22T02:00:33;100234.09;;;7.00;65.82
61436;BME280;47304;47.456;19.160;2023-02-22T02:03:29;100234.20;;;6.96;65.87
61436;BME280;47304;47.456;19.160;2023-02-22T02:06:00;100237.08;;;6.89;66.05
61436;BME280;47304;47.456;19.160;2023-02-22T02:08:30;100234.57;;;6.82;66.13
61436;BME280;47304;47.456;19.160;2023-02-22T02:10:58;100231.88;;;6.75;66.30
61436;BME280;47304;47.456;19.160;2023-02-22T02:13:27;100232.30;;;6.68;66.36
61436;BME280;47304;47.456;19.160;2023-02-22T02:15:54;100230.85;;;6.64;66.74
61436;BME280;47304;47.456;19.160;2023-02-22T02:18:22;100230.30;;;6.61;66.96
61436;BME280;47304;47.456;19.160;2023-02-22T02:24:22;100229.70;;;6.56;67.19
61436;BME280;47304;47.456;19.160;2023-02-22T02:26:47;100233.52;;;6.56;67.47
61436;BME280;47304;47.456;19.160;2023-02-22T02:37:32;100232.08;;;6.52;68.23
61436;BME280;47304;47.456;19.160;2023-02-22T02:43:14;100228.75;;;6.50;68.32
61436;BME280;47304;47.456;19.160;2023-02-22T02:45:44;100229.27;;;6.49;68.48
61436;BME280;47304;47.456;19.160;2023-02-22T02:48:14;100229.11;;;6.51;68.53
61436;BME280;47304;47.456;19.160;2023-02-22T02:50:55;100229.64;;;6.51;68.39
61436;BME280;47304;47.456;19.160;2023-02-22T02:53:29;100235.89;;;6.50;68.29
61436;BME280;47304;47.456;19.160;2023-02-22T02:56:00;100238.29;;;6.48;68.15
61436;BME280;47304;47.456;19.160;2023-02-22T02:58:28;100233.04;;;6.46;68.26
61436;BME280;47304;47.456;19.160;2023-02-22T03:00:57;100238.91;;;6.43;68.23
61436;BME280;47304;47.456;19.160;2023-02-22T03:09:23;100235.98;;;6.33;68.02
61436;BME280;47304;47.456;19.160;2023-02-22T03:18:22;100237.80;;;6.15;68.23
61436;BME280;47304;47.456;19.160;2023-02-22T03:23:34;100239.92;;;6.06;68.31
61436;BME280;47304;47.456;19.160;2023-02-22T03:26:07;100240.73;;;6.02;68.40
61436;BME280;47304;47.456;19.160;2023-02-22T03:28:35;100240.64;;;5.98;68.59
61436;BME280;47304;47.456;19.160;2023-02-22T03:31:06;100237.45;;;5.94;68.53
61436;BME280;47304;47.456;19.160;2023-02-22T03:33:43;100242.22;;;5.88;68.69
61436;BME280;47304;47.456;19.160;2023-02-22T03:36:21;100241.59;;;5.82;68.76
61436;BME280;47304;47.456;19.160;2023-02-22T03:38:51;100240.13;;;5.77;68.86
61436;BME280;47304;47.456;19.160;2023-02-22T03:41:21;100239.55;;;5.74;68.71
61436;BME280;47304;47.456;19.160;2023-02-22T03:43:50;100240.91;;;5.72;69.00
61436;BME280;47304;47.456;19.160;2023-02-22T03:46:19;100236.73;;;5.72;69.14
61436;BME280;47304;47.456;19.160;2023-02-22T03:51:13;100241.92;;;5.71;69.38
61436;BME280;47304;47.456;19.160;2023-02-22T03:53:42;100243.48;;;5.70;69.55
61436;BME280;47304;47.456;19.160;2023-02-22T03:56:12;100244.02;;;5.70;69.74
61436;BME280;47304;47.456;19.160;2023-02-22T03:58:40;100247.65;;;5.71;69.94
61436;BME280;47304;47.456;19.160;2023-02-22T04:01:08;100253.41;;;5.72;69.90
61436;BME280;47304;47.456;19.160;2023-02-22T04:03:35;100248.56;;;5.73;69.87
61436;BME280;47304;47.456;19.160;2023-02-22T04:06:01;100252.25;;;5.75;69.82
61436;BME280;47304;47.456;19.160;2023-02-22T04:08:28;100256.09;;;5.76;69.85
61436;BME280;47304;47.456;19.160;2023-02-22T04:10:54;100254.73;;;5.77;69.85
61436;BME280;47304;47.456;19.160;2023-02-22T04:13:21;100253.02;;;5.79;69.79
61436;BME280;47304;47.456;19.160;2023-02-22T04:15:47;100260.14;;;5.78;69.81
61436;BME280;47304;47.456;19.160;2023-02-22T04:18:14;100260.84;;;5.79;69.81
61436;BME280;47304;47.456;19.160;2023-02-22T04:20:40;100260.34;;;5.81;69.75
61436;BME280;47304;47.456;19.160;2023-02-22T04:23:07;100258.95;;;5.81;69.78
61436;BME280;47304;47.456;19.160;2023-02-22T04:25:33;100258.27;;;5.81;69.76
61436;BME280;47304;47.456;19.160;2023-02-22T04:28:00;100257.02;;;5.79;69.77
61436;BME280;47304;47.456;19.160;2023-02-22T04:30:27;100254.17;;;5.76;69.68
61436;BME280;47304;47.456;19.160;2023-02-22T04:32:53;100255.55;;;5.75;69.61
61436;BME280;47304;47.456;19.160;2023-02-22T04:35:20;100259.15;;;5.71;69.84
61436;BME280;47304;47.456;19.160;2023-02-22T04:37:47;100257.15;;;5.66;69.93
61436;BME280;47304;47.456;19.160;2023-02-22T04:40:15;100259.48;;;5.61;70.08
61436;BME280;47304;47.456;19.160;2023-02-22T04:42:42;100261.33;;;5.57;70.14
61436;BME280;47304;47.456;19.160;2023-02-22T04:45:09;100260.40;;;5.54;70.03
61436;BME280;47304;47.456;19.160;2023-02-22T04:47:36;100257.40;;;5.52;69.91
61436;BME280;47304;47.456;19.160;2023-02-22T04:50:04;100260.09;;;5.47;69.75
61436;BME280;47304;47.456;19.160;2023-02-22T04:52:31;100260.91;;;5.44;69.90
61436;BME280;47304;47.456;19.160;2023-02-22T04:54:58;100264.67;;;5.41;70.12
61436;BME280;47304;47.456;19.160;2023-02-22T04:57:24;100264.98;;;5.39;69.97
61436;BME280;47304;47.456;19.160;2023-02-22T04:59:51;100269.43;;;5.36;70.06
61436;BME280;47304;47.456;19.160;2023-02-22T05:02:18;100269.04;;;5.33;69.96
61436;BME280;47304;47.456;19.160;2023-02-22T05:04:45;100265.84;;;5.29;69.85
61436;BME280;47304;47.456;19.160;2023-02-22T05:07:11;100270.46;;;5.26;70.21
61436;BME280;47304;47.456;19.160;2023-02-22T05:09:38;100271.81;;;5.24;70.38
61436;BME280;47304;47.456;19.160;2023-02-22T05:12:05;100269.70;;;5.23;70.45
61436;BME280;47304;47.456;19.160;2023-02-22T05:14:31;100269.70;;;5.22;70.34
61436;BME280;47304;47.456;19.160;2023-02-22T05:16:59;100268.42;;;5.21;70.12
61436;BME280;47304;47.456;19.160;2023-02-22T05:19:25;100269.10;;;5.19;70.25
61436;BME280;47304;47.456;19.160;2023-02-22T05:21:52;100266.09;;;5.15;70.27
61436;BME280;47304;47.456;19.160;2023-02-22T05:24:18;100268.27;;;5.11;70.57
61436;BME280;47304;47.456;19.160;2023-02-22T05:26:45;100271.35;;;5.09;70.68
61436;BME280;47304;47.456;19.160;2023-02-22T05:29:12;100272.02;;;5.08;70.52
61436;BME280;47304;47.456;19.160;2023-02-22T05:31:39;100271.66;;;5.07;70.53
61436;BME280;47304;47.456;19.160;2023-02-22T05:34:06;100275.28;;;5.06;70.71
61436;BME280;47304;47.456;19.160;2023-02-22T05:36:32;100280.46;;;5.05;70.43
61436;BME280;47304;47.456;19.160;2023-02-22T05:38:59;100285.59;;;5.01;70.56
61436;BME280;47304;47.456;19.160;2023-02-22T05:41:27;100292.65;;;4.98;70.55
61436;BME280;47304;47.456;19.160;2023-02-22T05:43:53;100296.23;;;4.94;70.54
61436;BME280;47304;47.456;19.160;2023-02-22T05:46:20;100296.67;;;4.91;70.93
61436;BME280;47304;47.456;19.160;2023-02-22T05:48:47;100297.97;;;4.87;70.99
61436;BME280;47304;47.456;19.160;2023-02-22T05:51:13;100302.77;;;4.84;70.92
61436;BME280;47304;47.456;19.160;2023-02-22T05:53:40;100301.31;;;4.81;70.96
61436;BME280;47304;47.456;19.160;2023-02-22T05:56:07;100311.36;;;4.80;71.13
61436;BME280;47304;47.456;19.160;2023-02-22T05:58:33;100319.48;;;4.78;71.04
61436;BME280;47304;47.456;19.160;2023-02-22T06:01:00;100322.23;;;4.76;71.10
61436;BME280;47304;47.456;19.160;2023-02-22T06:03:28;100323.76;;;4.75;71.16
61436;BME280;47304;47.456;19.160;2023-02-22T06:05:55;100321.11;;;4.74;71.11
61436;BME280;47304;47.456;19.160;2023-02-22T06:08:21;100328.77;;;4.74;71.27
61436;BME280;47304;47.456;19.160;2023-02-22T06:10:48;100331.02;;;4.74;71.49
61436;BME280;47304;47.456;19.160;2023-02-22T06:13:14;100329.34;;;4.77;71.67
61436;BME280;47304;47.456;19.160;2023-02-22T06:15:41;100335.85;;;4.80;71.63
61436;BME280;47304;47.456;19.160;2023-02-22T06:18:07;100341.68;;;4.85;71.74
61436;BME280;47304;47.456;19.160;2023-02-22T06:20:34;100340.20;;;4.89;71.43
61436;BME280;47304;47.456;19.160;2023-02-22T06:23:00;100344.66;;;4.95;71.59
61436;BME280;47304;47.456;19.160;2023-02-22T06:25:29;100349.61;;;4.98;71.80
61436;BME280;47304;47.456;19.160;2023-02-22T06:27:57;100349.23;;;5.06;71.84
61436;BME280;47304;47.456;19.160;2023-02-22T06:30:25;100347.98;;;5.11;71.92
61436;BME280;47304;47.456;19.160;2023-02-22T06:32:52;100350.16;;;5.16;71.98
61436;BME280;47304;47.456;19.160;2023-02-22T06:35:18;100351.17;;;5.23;72.20
61436;BME280;47304;47.456;19.160;2023-02-22T06:37:45;100354.98;;;5.31;72.05
61436;BME280;47304;47.456;19.160;2023-02-22T06:40:12;100356.88;;;5.39;72.17
61436;BME280;47304;47.456;19.160;2023-02-22T06:42:39;100361.20;;;5.46;72.13
61436;BME280;47304;47.456;19.160;2023-02-22T06:45:07;100361.91;;;5.56;72.38
61436;BME280;47304;47.456;19.160;2023-02-22T06:47:40;100359.48;;;5.65;72.23
61436;BME280;47304;47.456;19.160;2023-02-22T06:50:18;100357.06;;;5.74;72.36
61436;BME280;47304;47.456;19.160;2023-02-22T06:52:44;100356.95;;;5.88;72.43
61436;BME280;47304;47.456;19.160;2023-02-22T06:55:16;100358.77;;;6.00;72.56
61436;BME280;47304;47.456;19.160;2023-02-22T06:57:42;100357.13;;;6.16;72.75
61436;BME280;47304;47.456;19.160;2023-02-22T07:00:09;100360.19;;;6.31;72.83
61436;BME280;47304;47.456;19.160;2023-02-22T07:02:36;100360.06;;;6.45;72.60
61436;BME280;47304;47.456;19.160;2023-02-22T07:05:02;100359.77;;;6.59;72.87
61436;BME280;47304;47.456;19.160;2023-02-22T07:07:29;100360.73;;;6.78;73.20
61436;BME280;47304;47.456;19.160;2023-02-22T07:09:55;100358.08;;;6.98;72.95
61436;BME280;47304;47.456;19.160;2023-02-22T07:12:22;100353.98;;;7.18;72.65
61436;BME280;47304;47.456;19.160;2023-02-22T07:14:48;100352.86;;;7.39;72.41
61436;BME280;47304;47.456;19.160;2023-02-22T07:17:15;100350.13;;;7.59;72.07
61436;BME280;47304;47.456;19.160;2023-02-22T07:19:41;100350.68;;;7.79;71.76
61436;BME280;47304;47.456;19.160;2023-02-22T07:22:08;100350.71;;;7.98;71.37
61436;BME280;47304;47.456;19.160;2023-02-22T07:24:35;100347.92;;;8.16;70.99
61436;BME280;47304;47.456;19.160;2023-02-22T07:27:01;100348.25;;;8.34;70.70
61436;BME280;47304;47.456;19.160;2023-02-22T07:29:28;100348.23;;;8.51;70.21
61436;BME280;47304;47.456;19.160;2023-02-22T07:31:54;100349.93;;;8.68;69.98
61436;BME280;47304;47.456;19.160;2023-02-22T07:34:21;100351.45;;;8.85;69.46
61436;BME280;47304;47.456;19.160;2023-02-22T07:36:47;100350.66;;;9.00;69.17
61436;BME280;47304;47.456;19.160;2023-02-22T07:39:14;100351.95;;;9.12;68.81
61436;BME280;47304;47.456;19.160;2023-02-22T07:41:40;100353.73;;;9.21;68.49
61436;BME280;47304;47.456;19.160;2023-02-22T07:44:07;100355.02;;;9.30;68.18
61436;BME280;47304;47.456;19.160;2023-02-22T07:46:33;100351.39;;;9.43;67.86
61436;BME280;47304;47.456;19.160;2023-02-22T07:49:00;100348.66;;;9.60;67.60
61436;BME280;47304;47.456;19.160;2023-02-22T07:51:27;100345.03;;;9.80;67.18
61436;BME280;47304;47.456;19.160;2023-02-22T07:53:53;100344.91;;;10.04;66.14
61436;BME280;47304;47.456;19.160;2023-02-22T07:56:20;100344.22;;;10.30;65.73
61436;BME280;47304;47.456;19.160;2023-02-22T07:58:47;100348.81;;;10.48;65.00
61436;BME280;47304;47.456;19.160;2023-02-22T08:01:13;100343.90;;;10.57;64.55
61436;BME280;47304;47.456;19.160;2023-02-22T08:03:40;100346.35;;;10.60;63.99
61436;BME280;47304;47.456;19.160;2023-02-22T08:06:07;100345.64;;;10.72;63.98
61436;BME280;47304;47.456;19.160;2023-02-22T08:08:34;100345.07;;;10.95;63.11
61436;BME280;47304;47.456;19.160;2023-02-22T08:11:01;100346.93;;;11.19;62.68
61436;BME280;47304;47.456;19.160;2023-02-22T08:13:27;100346.84;;;11.41;62.32
61436;BME280;47304;47.456;19.160;2023-02-22T08:15:54;100345.88;;;11.61;62.15
61436;BME280;47304;47.456;19.160;2023-02-22T08:18:21;100346.84;;;11.75;61.38
61436;BME280;47304;47.456;19.160;2023-02-22T08:20:50;100349.92;;;11.89;60.73
61436;BME280;47304;47.456;19.160;2023-02-22T08:23:18;100351.14;;;11.97;60.14
61436;BME280;47304;47.456;19.160;2023-02-22T08:25:44;100353.54;;;12.06;60.53
61436;BME280;47304;47.456;19.160;2023-02-22T08:28:14;100357.68;;;12.17;60.06
61436;BME280;47304;47.456;19.160;2023-02-22T08:30:41;100353.39;;;12.27;59.75
61436;BME280;47304;47.456;19.160;2023-02-22T08:33:09;100354.71;;;12.38;59.84
61436;BME280;47304;47.456;19.160;2023-02-22T08:35:35;100354.96;;;12.50;59.54
61436;BME280;47304;47.456;19.160;2023-02-22T08:38:04;100357.96;;;12.68;58.91
61436;BME280;47304;47.456;19.160;2023-02-22T08:40:35;100363.87;;;12.94;58.33
61436;BME280;47304;47.456;19.160;2023-02-22T08:43:03;100366.19;;;13.23;57.71
61436;BME280;47304;47.456;19.160;2023-02-22T08:45:29;100362.90;;;13.51;56.88
61436;BME280;47304;47.456;19.160;2023-02-22T08:47:57;100362.72;;;13.65;56.07
61436;BME280;47304;47.456;19.160;2023-02-22T08:50:29;100361.55;;;13.73;55.31
61436;BME280;47304;47.456;19.160;2023-02-22T08:52:58;100357.46;;;13.76;54.84
61436;BME280;47304;47.456;19.160;2023-02-22T08:55:29;100362.05;;;13.76;54.43
61436;BME280;47304;47.456;19.160;2023-02-22T08:57:57;100363.60;;;13.78;54.43
61436;BME280;47304;47.456;19.160;2023-02-22T09:00:24;100360.67;;;13.86;54.10
61436;BME280;47304;47.456;19.160;2023-02-22T09:02:51;100361.67;;;14.03;53.82
61436;BME280;47304;47.456;19.160;2023-02-22T09:05:18;100361.94;;;14.31;53.36
61436;BME280;47304;47.456;19.160;2023-02-22T09:07:45;100361.43;;;14.51;52.99
61436;BME280;47304;47.456;19.160;2023-02-22T09:10:23;100361.52;;;14.78;52.55
61436;BME280;47304;47.456;19.160;2023-02-22T09:12:51;100358.35;;;15.07;51.33
61436;BME280;47304;47.456;19.160;2023-02-22T09:15:17;100360.00;;;15.13;51.14
61436;BME280;47304;47.456;19.160;2023-02-22T09:17:44;100361.91;;;15.24;50.73
61436;BME280;47304;47.456;19.160;2023-02-22T09:20:11;100355.37;;;15.67;50.32
61436;BME280;47304;47.456;19.160;2023-02-22T09:22:38;100356.21;;;16.40;49.23
61436;BME280;47304;47.456;19.160;2023-02-22T09:25:06;100354.98;;;16.53;48.68
61436;BME280;47304;47.456;19.160;2023-02-22T09:27:42;100354.33;;;16.51;48.55
61436;BME280;47304;47.456;19.160;2023-02-22T09:30:24;100352.30;;;16.55;48.09
61436;BME280;47304;47.456;19.160;2023-02-22T09:32:54;100353.19;;;16.48;47.46
61436;BME280;47304;47.456;19.160;2023-02-22T09:35:23;100349.91;;;16.30;47.47
61436;BME280;47304;47.456;19.160;2023-02-22T09:37:49;100346.61;;;16.12;47.58
61436;BME280;47304;47.456;19.160;2023-02-22T09:40:17;100345.02;;;16.13;48.13
61436;BME280;47304;47.456;19.160;2023-02-22T09:42:52;100346.96;;;16.12;47.82
61436;BME280;47304;47.456;19.160;2023-02-22T09:45:27;100347.52;;;16.04;47.76
61436;BME280;47304;47.456;19.160;2023-02-22T09:47:58;100350.27;;;15.84;47.71
61436;BME280;47304;47.456;19.160;2023-02-22T09:50:48;100350.23;;;15.59;47.88
61436;BME280;47304;47.456;19.160;2023-02-22T09:55:52;100350.27;;;15.24;48.76
61436;BME280;47304;47.456;19.160;2023-02-22T09:58:25;100349.51;;;15.17;49.11
61436;BME280;47304;47.456;19.160;2023-02-22T10:00:57;100346.52;;;15.17;48.76
61436;BME280;47304;47.456;19.160;2023-02-22T10:03:35;100341.66;;;15.30;48.96
61436;BME280;47304;47.456;19.160;2023-02-22T10:06:14;100341.70;;;15.53;48.60
61436;BME280;47304;47.456;19.160;2023-02-22T10:08:43;100345.59;;;15.95;48.43
61436;BME280;47304;47.456;19.160;2023-02-22T10:11:15;100337.15;;;16.23;47.69
61436;BME280;47304;47.456;19.160;2023-02-22T10:19:08;100337.21;;;16.77;46.50
61436;BME280;47304;47.456;19.160;2023-02-22T10:21:45;100334.02;;;16.84;46.11
61436;BME280;47304;47.456;19.160;2023-02-22T10:24:36;100332.11;;;16.76;45.95
61436;BME280;47304;47.456;19.160;2023-02-22T10:27:05;100326.03;;;16.73;46.09
61436;BME280;47304;47.456;19.160;2023-02-22T10:32:19;100321.12;;;16.36;46.17
61436;BME280;47304;47.456;19.160;2023-02-22T10:34:49;100324.35;;;16.05;46.64
61436;BME280;47304;47.456;19.160;2023-02-22T10:37:31;100320.35;;;15.86;47.23
61436;BME280;47304;47.456;19.160;2023-02-22T10:40:09;100321.13;;;15.66;47.65
61436;BME280;47304;47.456;19.160;2023-02-22T10:42:37;100315.70;;;15.48;47.96
61436;BME280;47304;47.456;19.160;2023-02-22T10:45:05;100318.68;;;15.32;47.98
61436;BME280;47304;47.456;19.160;2023-02-22T10:47:44;100314.73;;;15.18;48.26
61436;BME280;47304;47.456;19.160;2023-02-22T10:50:12;100309.30;;;15.08;48.47
61436;BME280;47304;47.456;19.160;2023-02-22T10:52:40;100306.20;;;15.04;48.67
61436;BME280;47304;47.456;19.160;2023-02-22T10:55:13;100305.66;;;15.04;49.01
61436;BME280;47304;47.456;19.160;2023-02-22T10:57:44;100303.15;;;15.15;48.95
61436;BME280;47304;47.456;19.160;2023-02-22T11:02:57;100298.48;;;15.27;48.76
61436;BME280;47304;47.456;19.160;2023-02-22T11:10:42;100298.14;;;14.92;48.61
61436;BME280;47304;47.456;19.160;2023-02-22T11:13:38;100295.25;;;14.87;48.83
61436;BME280;47304;47.456;19.160;2023-02-22T11:16:24;100292.94;;;14.78;49.00
61436;BME280;47304;47.456;19.160;2023-02-22T11:19:15;100289.41;;;14.68;49.29
61436;BME280;47304;47.456;19.160;2023-02-22T11:21:43;100287.77;;;14.50;49.75
61436;BME280;47304;47.456;19.160;2023-02-22T11:24:12;100285.45;;;14.42;50.14
61436;BME280;47304;47.456;19.160;2023-02-22T11:26:46;100289.70;;;14.31;50.16
61436;BME280;47304;47.456;19.160;2023-02-22T11:29:24;100289.58;;;14.17;50.27
61436;BME280;47304;47.456;19.160;2023-02-22T11:31:52;100283.77;;;14.06;50.54
61436;BME280;47304;47.456;19.160;2023-02-22T11:34:35;100282.23;;;14.02;50.84
61436;BME280;47304;47.456;19.160;2023-02-22T11:39:41;100282.72;;;13.94;50.54
61436;BME280;47304;47.456;19.160;2023-02-22T11:42:25;100280.71;;;13.88;50.55
61436;BME280;47304;47.456;19.160;2023-02-22T11:47:46;100281.21;;;13.77;50.98
61436;BME280;47304;47.456;19.160;2023-02-22T11:53:24;100280.88;;;13.64;51.16
61436;BME280;47304;47.456;19.160;2023-02-22T11:56:13;100283.66;;;13.54;51.13
61436;BME280;47304;47.456;19.160;2023-02-22T11:59:02;100278.33;;;13.46;51.55
61436;BME280;47304;47.456;19.160;2023-02-22T12:01:55;100280.66;;;13.40;51.74
61436;BME280;47304;47.456;19.160;2023-02-22T12:04:45;100278.14;;;13.32;52.39
61436;BME280;47304;47.456;19.160;2023-02-22T12:10:25;100273.41;;;13.15;52.90
61436;BME280;47304;47.456;19.160;2023-02-22T12:13:12;100270.58;;;13.17;52.75
61436;BME280;47304;47.456;19.160;2023-02-22T12:21:38;100266.30;;;13.06;53.02
61436;BME280;47304;47.456;19.160;2023-02-22T12:24:14;100267.61;;;13.01;53.16
61436;BME280;47304;47.456;19.160;2023-02-22T12:26:52;100269.05;;;12.98;53.37
61436;BME280;47304;47.456;19.160;2023-02-22T12:29:35;100264.34;;;12.94;53.43
61436;BME280;47304;47.456;19.160;2023-02-22T12:32:13;100264.02;;;12.91;53.64
61436;BME280;47304;47.456;19.160;2023-02-22T12:34:49;100261.38;;;12.92;53.66
61436;BME280;47304;47.456;19.160;2023-02-22T12:42:49;100255.77;;;12.90;53.85
61436;BME280;47304;47.456;19.160;2023-02-22T12:45:45;100251.67;;;12.97;53.99
61436;BME280;47304;47.456;19.160;2023-02-22T12:48:31;100253.09;;;13.09;53.84
61436;BME280;47304;47.456;19.160;2023-02-22T12:53:45;100245.52;;;13.24;53.49
61436;BME280;47304;47.456;19.160;2023-02-22T12:59:11;100238.52;;;13.22;53.42
61436;BME280;47304;47.456;19.160;2023-02-22T13:01:43;100234.63;;;13.22;53.54
61436;BME280;47304;47.456;19.160;2023-02-22T13:04:11;100232.67;;;13.23;53.66
61436;BME280;47304;47.456;19.160;2023-02-22T13:13:01;100230.06;;;13.34;53.89
61436;BME280;47304;47.456;19.160;2023-02-22T13:15:51;100228.25;;;13.41;53.81
61436;BME280;47304;47.456;19.160;2023-02-22T13:21:02;100227.73;;;13.51;53.52
61436;BME280;47304;47.456;19.160;2023-02-22T13:28:56;100231.99;;;13.50;53.40
61436;BME280;47304;47.456;19.160;2023-02-22T13:37:02;100227.02;;;13.39;53.66
61436;BME280;47304;47.456;19.160;2023-02-22T13:48:33;100230.23;;;13.23;53.87
61436;BME280;47304;47.456;19.160;2023-02-22T13:53:49;100229.99;;;13.12;54.22
61436;BME280;47304;47.456;19.160;2023-02-22T13:56:18;100226.04;;;13.06;54.29
61436;BME280;47304;47.456;19.160;2023-02-22T13:58:52;100227.99;;;13.04;54.56
61436;BME280;47304;47.456;19.160;2023-02-22T14:01:41;100225.73;;;13.02;54.55
61436;BME280;47304;47.456;19.160;2023-02-22T14:06:58;100229.19;;;12.94;54.65
61436;BME280;47304;47.456;19.160;2023-02-22T14:18:03;100223.39;;;12.79;55.19
61436;BME280;47304;47.456;19.160;2023-02-22T14:20:37;100225.89;;;12.75;55.34
61436;BME280;47304;47.456;19.160;2023-02-22T14:23:38;100221.89;;;12.71;55.23
61436;BME280;47304;47.456;19.160;2023-02-22T14:28:47;100223.88;;;12.67;55.42
61436;BME280;47304;47.456;19.160;2023-02-22T14:31:21;100225.66;;;12.65;55.52
61436;BME280;47304;47.456;19.160;2023-02-22T14:34:08;100223.39;;;12.63;55.64
61436;BME280;47304;47.456;19.160;2023-02-22T14:36:53;100221.33;;;12.60;55.53
61436;BME280;47304;47.456;19.160;2023-02-22T14:39:34;100223.10;;;12.59;55.76
61436;BME280;47304;47.456;19.160;2023-02-22T14:42:23;100223.98;;;12.58;55.89
61436;BME280;47304;47.456;19.160;2023-02-22T14:45:12;100223.28;;;12.58;56.07
61436;BME280;47304;47.456;19.160;2023-02-22T14:50:22;100220.86;;;12.54;56.53
61436;BME280;47304;47.456;19.160;2023-02-22T14:53:03;100220.16;;;12.53;56.55
61436;BME280;47304;47.456;19.160;2023-02-22T14:55:33;100216.46;;;12.55;56.83
61436;BME280;47304;47.456;19.160;2023-02-22T15:03:03;100217.92;;;12.49;57.17
61436;BME280;47304;47.456;19.160;2023-02-22T15:05:35;100215.33;;;12.45;57.44
61436;BME280;47304;47.456;19.160;2023-02-22T15:08:05;100212.73;;;12.42;57.63
61436;BME280;47304;47.456;19.160;2023-02-22T15:13:04;100215.56;;;12.40;57.61
61436;BME280;47304;47.456;19.160;2023-02-22T15:15:32;100213.64;;;12.38;57.70
61436;BME280;47304;47.456;19.160;2023-02-22T15:17:58;100213.99;;;12.38;57.75
61436;BME280;47304;47.456;19.160;2023-02-22T15:20:25;100213.13;;;12.37;57.78